Time;durP1;ratioP1;P1;durP2;ratioP2;P2;SDS_P1;SDS_P2;PMS_P1;PMS_P2;Temp;Humidity;BMP_temperature;BMP_pressure;BME280_temperature;BME280_humidity;BME280_pressure;Samples;Min_cycle;Max_cycle;Signal;HPM_P1;HPM_P2
2021/06/16 00:23:07;;;;;;;13.38;11.27;;;;;;;;;;5936975;29;20552;-74
2021/06/16 00:42:33;;;;;;;23.27;15.27;;;;;;;;;;6151914;28;20158;-73
2021/06/16 01:10:36;;;;;;;20.27;15.70;;;;;;;;;;6082865;23;20050;-69
2021/06/16 01:13:43;;;;;;;22.05;17.60;;;;;;;;;;6199102;28;20050;-68
2021/06/16 01:16:48;;;;;;;20.02;16.98;;;;;;;;;;6200044;28;20456;-70
2021/06/16 01:20:04;;;;;;;28.55;19.17;;;;;;;;;;6198643;28;20563;-68
2021/06/16 01:23:25;;;;;;;20.95;18.45;;;;;;;;;;6198725;28;20053;-69
2021/06/16 01:26:29;;;;;;;22.60;18.50;;;;;;;;;;6199507;28;20487;-70
2021/06/16 01:29:34;;;;;;;26.17;19.08;;;;;;;;;;6199603;28;20082;-70
2021/06/16 01:32:36;;;;;;;26.17;18.50;;;;;;;;;;6199707;28;20054;-70
2021/06/16 01:35:40;;;;;;;24.92;18.67;;;;;;;;;;6199360;28;20110;-70
2021/06/16 01:38:44;;;;;;;26.10;19.38;;;;;;;;;;6194445;28;20554;-71
2021/06/16 01:41:47;;;;;;;;;;;;;;;;;;6184218;28;20189;-71
2021/06/16 01:44:51;;;;;;;24.13;19.58;;;;;;;;;;6180946;28;19999;-71
2021/06/16 01:47:53;;;;;;;24.23;19.33;;;;;;;;;;6176405;28;20101;-71
2021/06/16 01:50:55;;;;;;;26.13;19.50;;;;;;;;;;6168154;28;20528;-71
2021/06/16 01:53:58;;;;;;;24.60;20.25;;;;;;;;;;6154890;28;20558;-71
2021/06/16 01:57:01;;;;;;;22.90;19.03;;;;;;;;;;6156141;28;20126;-71
2021/06/16 02:00:06;;;;;;;24.88;19.20;;;;;;;;;;6156227;28;20130;-71
2021/06/16 02:03:09;;;;;;;24.55;19.55;;;;;;;;;;6155332;28;20205;-71
2021/06/16 02:06:11;;;;;;;26.63;19.60;;;;;;;;;;6154862;28;20051;-71
2021/06/16 02:09:14;;;;;;;23.70;18.52;;;;;;;;;;6156785;28;20156;-70
2021/06/16 02:12:18;;;;;;;23.48;17.77;;;;;;;;;;6154567;28;20123;-71
2021/06/16 02:15:20;;;;;;;27.05;18.58;;;;;;;;;;6153751;28;20125;-71
2021/06/16 02:18:24;;;;;;;20.92;17.42;;;;;;;;;;6155693;28;20175;-71
2021/06/16 02:21:26;;;;;;;22.75;18.13;;;;;;;;;;6162512;28;20125;-71
2021/06/16 02:24:28;;;;;;;19.50;16.77;;;;;;;;;;6164822;28;20047;-70
2021/06/16 02:27:31;;;;;;;21.10;16.77;;;;;;;;;;6174382;28;20354;-70
2021/06/16 02:30:33;;;;;;;22.42;16.90;;;;;;;;;;6187930;28;20054;-70
2021/06/16 02:33:35;;;;;;;22.88;18.15;;;;;;;;;;6178823;28;20065;-71
2021/06/16 02:36:38;;;;;;;18.13;16.05;;;;;;;;;;6194654;28;20065;-70
2021/06/16 02:39:43;;;;;;;19.83;16.17;;;;;;;;;;6193362;28;20050;-71
2021/06/16 02:42:49;;;;;;;22.10;16.05;;;;;;;;;;6195599;28;20604;-71
2021/06/16 02:45:51;;;;;;;21.08;16.35;;;;;;;;;;6192183;28;20133;-71
2021/06/16 02:48:53;;;;;;;18.23;15.40;;;;;;;;;;6198553;28;20200;-70
2021/06/16 02:51:55;;;;;;;21.65;14.68;;;;;;;;;;6197150;28;20136;-71
2021/06/16 02:55:01;;;;;;;20.02;14.98;;;;;;;;;;6159382;28;20137;-71
2021/06/16 02:58:05;;;;;;;22.08;15.55;;;;;;;;;;6177628;28;20058;-71
2021/06/16 03:01:07;;;;;;;;;;;;;;;;;;6168278;28;20185;-70
2021/06/16 03:04:09;;;;;;;19.55;15.07;;;;;;;;;;6165320;28;19922;-70
2021/06/16 03:07:11;;;;;;;16.65;14.80;;;;;;;;;;6176581;28;20194;-71
2021/06/16 03:10:13;;;;;;;20.52;14.77;;;;;;;;;;6166847;28;20059;-70
2021/06/16 03:13:17;;;;;;;18.75;14.52;;;;;;;;;;6167265;28;20556;-70
2021/06/16 03:16:20;;;;;;;19.88;14.43;;;;;;;;;;6155838;28;20801;-71
2021/06/16 03:19:22;;;;;;;18.40;14.45;;;;;;;;;;6172625;28;20129;-70
2021/06/16 03:22:24;;;;;;;21.33;16.25;;;;;;;;;;6162369;28;20497;-70
2021/06/16 03:25:26;;;;;;;20.95;14.40;;;;;;;;;;6159564;28;20134;-70
2021/06/16 03:28:30;;;;;;;26.10;14.93;;;;;;;;;;6170060;28;20055;-70
2021/06/16 03:31:32;;;;;;;22.75;14.65;;;;;;;;;;6165984;28;20121;-70
2021/06/16 03:34:34;;;;;;;16.48;14.68;;;;;;;;;;6157192;28;20054;-71
2021/06/16 03:37:37;;;;;;;16.00;14.15;;;;;;;;;;6151081;28;20090;-71
2021/06/16 03:40:39;;;;;;;19.42;14.27;;;;;;;;;;6132457;28;20118;-70
2021/06/16 03:43:42;;;;;;;18.42;14.35;;;;;;;;;;6154218;28;20447;-71
2021/06/16 03:46:44;;;;;;;19.85;13.93;;;;;;;;;;6156875;28;20126;-71
2021/06/16 03:49:46;;;;;;;19.00;14.07;;;;;;;;;;6170532;28;20061;-71
2021/06/16 03:52:48;;;;;;;17.48;13.73;;;;;;;;;;6172623;28;20134;-71
2021/06/16 03:55:51;;;;;;;21.77;14.45;;;;;;;;;;6174986;28;20093;-71
2021/06/16 03:58:55;;;;;;;16.48;13.77;;;;;;;;;;6148402;28;20145;-72
2021/06/16 04:01:56;;;;;;;16.67;13.57;;;;;;;;;;6152660;28;20142;-71
2021/06/16 04:05:01;;;;;;;21.98;15.68;;;;;;;;;;6150296;28;20142;-71
2021/06/16 04:08:03;;;;;;;19.92;14.98;;;;;;;;;;6156336;28;20039;-71
2021/06/16 04:11:06;;;;;;;19.63;14.40;;;;;;;;;;6152007;28;20264;-71
2021/06/16 04:14:09;;;;;;;18.93;13.97;;;;;;;;;;6151027;28;20058;-71
2021/06/16 04:17:10;;;;;;;16.90;13.82;;;;;;;;;;6152284;28;20098;-71
2021/06/16 04:20:14;;;;;;;20.88;14.30;;;;;;;;;;6148999;28;20126;-71
2021/06/16 04:23:16;;;;;;;17.98;13.90;;;;;;;;;;6153797;28;20091;-71
2021/06/16 04:26:18;;;;;;;23.10;14.13;;;;;;;;;;6153223;28;20051;-71
2021/06/16 04:29:21;;;;;;;23.98;14.38;;;;;;;;;;6156920;28;20407;-71
2021/06/16 04:32:23;;;;;;;20.90;13.73;;;;;;;;;;6160925;28;20129;-71
2021/06/16 04:35:28;;;;;;;18.45;13.60;;;;;;;;;;6155629;28;20138;-70
2021/06/16 04:38:30;;;;;;;17.30;14.57;;;;;;;;;;6147750;28;20051;-70
2021/06/16 04:41:32;;;;;;;16.63;13.70;;;;;;;;;;6150918;28;20506;-70
2021/06/16 04:44:35;;;;;;;19.17;14.90;;;;;;;;;;6147108;28;20051;-70
2021/06/16 04:47:37;;;;;;;19.73;15.07;;;;;;;;;;6149088;28;20075;-72
2021/06/16 04:50:39;;;;;;;21.33;14.30;;;;;;;;;;6156786;28;20125;-70
2021/06/16 04:53:40;;;;;;;24.65;15.15;;;;;;;;;;6156584;28;20779;-70
2021/06/16 04:56:42;;;;;;;17.23;13.98;;;;;;;;;;6164344;28;20059;-70
2021/06/16 04:59:46;;;;;;;20.33;14.38;;;;;;;;;;6169131;28;20853;-71
2021/06/16 05:02:48;;;;;;;21.30;15.00;;;;;;;;;;6167175;28;20138;-70
2021/06/16 05:05:49;;;;;;;25.52;15.60;;;;;;;;;;6151730;28;20051;-70
2021/06/16 05:08:51;;;;;;;21.55;16.65;;;;;;;;;;6157865;28;20065;-67
2021/06/16 05:11:53;;;;;;;28.42;17.15;;;;;;;;;;6150776;28;20572;-68
2021/06/16 05:14:56;;;;;;;21.33;15.25;;;;;;;;;;6155351;28;20130;-65
2021/06/16 05:17:58;;;;;;;26.52;16.63;;;;;;;;;;6154714;28;20796;-66
2021/06/16 05:20:59;;;;;;;24.55;15.93;;;;;;;;;;6155508;28;20138;-67
2021/06/16 05:24:01;;;;;;;21.90;16.40;;;;;;;;;;6152222;28;20170;-67
2021/06/16 05:27:05;;;;;;;25.40;15.95;;;;;;;;;;6149394;28;20083;-67
2021/06/16 05:30:09;;;;;;;21.02;16.15;;;;;;;;;;6154447;28;20047;-68
2021/06/16 05:33:11;;;;;;;21.00;16.17;;;;;;;;;;6149740;28;20046;-68
2021/06/16 05:36:13;;;;;;;19.77;15.82;;;;;;;;;;6165201;28;20118;-68
2021/06/16 05:39:14;;;;;;;22.58;17.00;;;;;;;;;;6160541;28;20533;-67
2021/06/16 05:42:16;;;;;;;18.15;15.45;;;;;;;;;;6151637;28;20130;-68
2021/06/16 05:45:19;;;;;;;18.50;15.50;;;;;;;;;;6150954;28;20095;-67
2021/06/16 05:48:21;;;;;;;21.63;17.38;;;;;;;;;;6171190;28;20047;-68
2021/06/16 05:51:23;;;;;;;26.20;16.20;;;;;;;;;;6179322;28;20149;-67
2021/06/16 05:54:25;;;;;;;21.23;14.85;;;;;;;;;;6154918;28;20098;-67
2021/06/16 05:57:27;;;;;;;27.17;15.27;;;;;;;;;;6152145;28;20082;-67
2021/06/16 06:00:30;;;;;;;19.90;15.45;;;;;;;;;;6169652;28;20039;-68
2021/06/16 06:03:31;;;;;;;18.75;15.32;;;;;;;;;;6149699;28;20133;-68
2021/06/16 06:06:33;;;;;;;18.50;15.27;;;;;;;;;;6151588;28;20055;-68
2021/06/16 06:09:35;;;;;;;21.17;15.63;;;;;;;;;;6156194;28;20070;-69
2021/06/16 06:12:36;;;;;;;20.17;16.13;;;;;;;;;;6159594;28;20120;-68
2021/06/16 06:15:40;;;;;;;19.05;14.68;;;;;;;;;;6159282;28;20135;-68
2021/06/16 06:18:41;;;;;;;20.42;14.80;;;;;;;;;;6165784;28;20062;-68
2021/06/16 06:21:43;;;;;;;20.67;15.73;;;;;;;;;;6151099;28;20738;-68
2021/06/16 06:24:44;;;;;;;19.50;15.85;;;;;;;;;;6151520;28;21054;-68
2021/06/16 06:27:46;;;;;;;20.05;15.20;;;;;;;;;;6156948;28;20639;-69
2021/06/16 06:30:49;;;;;;;236.23;26.73;;;;;;;;;;6154275;28;20101;-71
2021/06/16 06:33:50;;;;;;;24.00;16.38;;;;;;;;;;6148396;28;20127;-68
2021/06/16 06:36:52;;;;;;;21.52;16.75;;;;;;;;;;6149859;28;20527;-67
2021/06/16 06:39:54;;;;;;;21.27;15.70;;;;;;;;;;6150498;28;20740;-69
2021/06/16 06:42:55;;;;;;;21.10;15.93;;;;;;;;;;6150824;28;20158;-68
2021/06/16 06:45:58;;;;;;;20.92;17.15;;;;;;;;;;6147963;28;20062;-69
2021/06/16 06:49:00;;;;;;;22.08;17.10;;;;;;;;;;6152550;28;20122;-68
2021/06/16 06:52:01;;;;;;;26.17;16.77;;;;;;;;;;6152077;28;20130;-68
2021/06/16 06:55:09;;;;;;;26.65;16.77;;;;;;;;;;6152685;28;20106;-68
2021/06/16 06:58:11;;;;;;;23.58;16.98;;;;;;;;;;6164199;28;20073;-68
2021/06/16 07:01:14;;;;;;;22.35;17.10;;;;;;;;;;6181012;28;20128;-68
2021/06/16 07:04:15;;;;;;;22.27;16.17;;;;;;;;;;6182303;28;20100;-68
2021/06/16 07:07:17;;;;;;;19.05;16.33;;;;;;;;;;6174862;28;20038;-68
2021/06/16 07:10:19;;;;;;;24.92;17.23;;;;;;;;;;6176259;28;20125;-68
2021/06/16 07:13:20;;;;;;;23.42;17.45;;;;;;;;;;6179037;28;20042;-68
2021/06/16 07:16:24;;;;;;;22.08;16.65;;;;;;;;;;6177259;28;20066;-68
2021/06/16 07:19:26;;;;;;;23.40;16.50;;;;;;;;;;6163788;28;20475;-68
2021/06/16 07:22:28;;;;;;;20.52;16.40;;;;;;;;;;6176776;28;20106;-68
2021/06/16 07:25:29;;;;;;;22.27;16.08;;;;;;;;;;6171966;28;20114;-69
2021/06/16 07:28:31;;;;;;;22.80;16.00;;;;;;;;;;6180597;28;20125;-67
2021/06/16 07:31:34;;;;;;;19.90;17.70;;;;;;;;;;6183766;28;20133;-67
2021/06/16 07:34:36;;;;;;;20.35;15.88;;;;;;;;;;6177301;28;20057;-68
2021/06/16 07:37:38;;;;;;;20.98;16.73;;;;;;;;;;6181056;28;20142;-67
2021/06/16 07:40:40;;;;;;;23.85;17.50;;;;;;;;;;6180471;28;20185;-69
2021/06/16 07:43:41;;;;;;;26.58;17.15;;;;;;;;;;6181176;28;20051;-68
2021/06/16 07:46:44;;;;;;;22.17;16.40;;;;;;;;;;6177233;28;20072;-69
2021/06/16 07:49:46;;;;;;;20.80;16.20;;;;;;;;;;6194900;28;20489;-68
2021/06/16 07:52:48;;;;;;;39.70;16.90;;;;;;;;;;6186079;28;20545;-68
2021/06/16 07:55:52;;;;;;;28.23;17.05;;;;;;;;;;6192542;28;20061;-68
2021/06/16 07:58:53;;;;;;;25.35;15.82;;;;;;;;;;6177787;28;20078;-68
2021/06/16 08:01:56;;;;;;;24.45;15.02;;;;;;;;;;6174259;28;20133;-69
2021/06/16 08:04:58;;;;;;;27.60;17.10;;;;;;;;;;6176679;28;20510;-69
2021/06/16 08:08:00;;;;;;;20.60;17.65;;;;;;;;;;6179716;28;20669;-68
2021/06/16 08:11:02;;;;;;;19.55;16.42;;;;;;;;;;6179397;28;20054;-68
2021/06/16 08:14:04;;;;;;;17.55;15.02;;;;;;;;;;6177916;28;20057;-68
2021/06/16 08:17:08;;;;;;;20.67;16.10;;;;;;;;;;6184522;28;20097;-69
2021/06/16 08:20:10;;;;;;;24.63;16.35;;;;;;;;;;6178793;28;20081;-68
2021/06/16 08:23:12;;;;;;;22.80;16.85;;;;;;;;;;6171534;28;20121;-69
2021/06/16 08:26:14;;;;;;;44.53;19.38;;;;;;;;;;6167572;28;20453;-68
2021/06/16 08:29:16;;;;;;;20.63;17.25;;;;;;;;;;6175167;28;20889;-68
2021/06/16 08:32:19;;;;;;;21.30;17.45;;;;;;;;;;6175667;28;20555;-67
2021/06/16 08:35:21;;;;;;;24.83;17.65;;;;;;;;;;6178766;28;20051;-70
2021/06/16 08:38:22;;;;;;;26.92;17.65;;;;;;;;;;6176146;28;20188;-70
2021/06/16 08:41:25;;;;;;;23.77;17.42;;;;;;;;;;6178693;28;20514;-68
2021/06/16 08:44:27;;;;;;;25.40;16.55;;;;;;;;;;6179647;28;20097;-69
2021/06/16 08:47:30;;;;;;;20.02;15.32;;;;;;;;;;6175955;28;20482;-69
2021/06/16 08:50:31;;;;;;;;;;;;;;;;;;6180113;28;20046;-70
2021/06/16 08:53:33;;;;;;;21.80;16.10;;;;;;;;;;6178918;28;20472;-70
2021/06/16 08:56:35;;;;;;;19.67;15.55;;;;;;;;;;6177400;28;20081;-70
2021/06/16 08:59:36;;;;;;;22.45;16.83;;;;;;;;;;6176028;28;20062;-71
2021/06/16 09:02:40;;;;;;;20.58;16.25;;;;;;;;;;6179396;28;20061;-71
2021/06/16 09:05:41;;;;;;;;;;;;;;;;;;6174405;28;20513;-70
2021/06/16 09:08:55;;;;;;;20.13;16.42;;;;;;;;;;6172873;28;20076;-69
2021/06/16 09:11:56;;;;;;;28.20;16.40;;;;;;;;;;6175609;28;20197;-69
2021/06/16 09:14:58;;;;;;;21.58;16.25;;;;;;;;;;6177859;28;20050;-69
2021/06/16 09:18:05;;;;;;;21.42;16.95;;;;;;;;;;6178497;28;20136;-73
2021/06/16 09:21:07;;;;;;;19.85;17.35;;;;;;;;;;6153638;28;20116;-69
2021/06/16 09:24:10;;;;;;;22.95;17.45;;;;;;;;;;6171845;28;20070;-69
2021/06/16 09:27:12;;;;;;;20.52;16.75;;;;;;;;;;6174715;28;20241;-69
2021/06/16 09:30:42;;;;;;;26.20;15.85;;;;;;;;;;6177468;28;20153;-68
2021/06/16 09:33:46;;;;;;;21.10;16.20;;;;;;;;;;6174905;28;20043;-68
2021/06/16 09:36:50;;;;;;;21.02;15.88;;;;;;;;;;6173751;28;20405;-69
2021/06/16 09:39:59;;;;;;;19.88;15.93;;;;;;;;;;6175710;28;20109;-69
2021/06/16 09:43:03;;;;;;;23.17;15.65;;;;;;;;;;6178322;28;20090;-69
2021/06/16 09:46:13;;;;;;;25.15;17.05;;;;;;;;;;6174015;28;20133;-69
2021/06/16 09:49:16;;;;;;;24.38;17.50;;;;;;;;;;6174483;28;20062;-69
2021/06/16 09:52:31;;;;;;;22.77;18.00;;;;;;;;;;6176929;28;20089;-71
2021/06/16 09:55:33;;;;;;;20.67;16.95;;;;;;;;;;6171448;28;21397;-71
2021/06/16 09:58:39;;;;;;;24.30;17.17;;;;;;;;;;6173557;28;20043;-72
2021/06/16 10:01:50;;;;;;;21.98;17.08;;;;;;;;;;6178068;28;20567;-72
2021/06/16 10:04:57;;;;;;;22.38;17.23;;;;;;;;;;6176370;28;20050;-72
2021/06/16 10:07:58;;;;;;;21.60;16.77;;;;;;;;;;6176741;28;20104;-72
2021/06/16 10:11:01;;;;;;;24.13;17.80;;;;;;;;;;6174052;28;20207;-73
2021/06/16 10:14:03;;;;;;;;;;;;;;;;;;6183443;28;20137;-71
2021/06/16 10:17:05;;;;;;;24.15;16.50;;;;;;;;;;6183767;28;20023;-72
2021/06/16 10:20:09;;;;;;;23.55;15.63;;;;;;;;;;6186161;28;20116;-73
2021/06/16 10:23:11;;;;;;;24.08;16.45;;;;;;;;;;6176882;28;20042;-72
2021/06/16 10:26:16;;;;;;;21.45;17.40;;;;;;;;;;6178468;28;20137;-71
2021/06/16 10:29:18;;;;;;;21.83;17.17;;;;;;;;;;6183148;28;20058;-71
2021/06/16 10:32:20;;;;;;;24.75;17.42;;;;;;;;;;6176011;28;20077;-71
2021/06/16 10:35:35;;;;;;;17.80;13.90;;;;;;;;;;6178607;28;20185;-72
2021/06/16 10:38:37;;;;;;;20.42;15.15;;;;;;;;;;6179724;28;20141;-71
2021/06/16 10:41:56;;;;;;;22.48;15.20;;;;;;;;;;6173969;28;20794;-69
2021/06/16 10:45:18;;;;;;;21.17;17.05;;;;;;;;;;6174336;28;20047;-69
2021/06/16 10:48:20;;;;;;;18.83;16.83;;;;;;;;;;6165709;28;20090;-69
2021/06/16 10:51:34;;;;;;;20.65;18.13;;;;;;;;;;6162709;28;20134;-71
2021/06/16 10:54:36;;;;;;;22.98;17.67;;;;;;;;;;6172081;28;20096;-66
2021/06/16 10:57:38;;;;;;;27.03;19.30;;;;;;;;;;6180911;28;20141;-69
2021/06/16 11:00:39;;;;;;;23.08;16.95;;;;;;;;;;6182268;28;20177;-69
2021/06/16 11:04:03;;;;;;;19.17;16.88;;;;;;;;;;6182925;28;20047;-69
2021/06/16 11:07:39;;;;;;;18.25;16.23;;;;;;;;;;6177712;28;20541;-68
2021/06/16 11:10:57;;;;;;;20.63;13.05;;;;;;;;;;6175612;28;20462;-67
2021/06/16 11:13:58;;;;;;;18.63;12.10;;;;;;;;;;6185133;28;20145;-67
2021/06/16 11:17:00;;;;;;;12.45;11.15;;;;;;;;;;6167329;28;20157;-67
2021/06/16 11:20:05;;;;;;;13.38;12.02;;;;;;;;;;6177685;28;20145;-67
2021/06/16 11:23:08;;;;;;;19.02;13.88;;;;;;;;;;6179662;28;20465;-68
2021/06/16 11:26:43;;;;;;;16.48;12.27;;;;;;;;;;6180989;28;20114;-67
2021/06/16 11:30:05;;;;;;;13.88;11.40;;;;;;;;;;6186041;28;20497;-69
2021/06/16 11:33:27;;;;;;;13.32;11.60;;;;;;;;;;6183720;28;20805;-71
2021/06/16 11:36:39;;;;;;;11.88;10.45;;;;;;;;;;6186476;28;20250;-71
2021/06/16 11:39:42;;;;;;;16.00;11.95;;;;;;;;;;6173285;28;20047;-72
2021/06/16 11:42:44;;;;;;;10.93;8.90;;;;;;;;;;6191132;28;20054;-70
2021/06/16 11:45:46;;;;;;;9.40;6.43;;;;;;;;;;6185538;28;20117;-70
2021/06/16 11:48:49;;;;;;;10.32;9.07;;;;;;;;;;6187847;28;20474;-68
2021/06/16 11:51:52;;;;;;;13.15;9.25;;;;;;;;;;6187608;28;21210;-70
2021/06/16 11:54:56;;;;;;;11.02;7.78;;;;;;;;;;6186116;28;20165;-69
2021/06/16 11:57:57;;;;;;;10.75;9.27;;;;;;;;;;6182860;28;20057;-70
2021/06/16 12:01:20;;;;;;;12.23;10.57;;;;;;;;;;6189731;28;20575;-70
2021/06/16 12:04:21;;;;;;;;;;;;;;;;;;6179710;28;20177;-70
2021/06/16 12:07:29;;;;;;;14.98;11.13;;;;;;;;;;6186182;28;20028;-70
2021/06/16 12:10:31;;;;;;;11.27;9.65;;;;;;;;;;6170706;28;20103;-70
2021/06/16 12:13:33;;;;;;;12.00;8.43;;;;;;;;;;6183297;28;20050;-70
2021/06/16 12:16:40;;;;;;;12.40;10.10;;;;;;;;;;6187172;28;20114;-68
2021/06/16 12:19:41;;;;;;;13.45;10.23;;;;;;;;;;6186557;28;20050;-69
2021/06/16 12:22:43;;;;;;;13.52;8.90;;;;;;;;;;6169413;28;20468;-69
2021/06/16 12:25:46;;;;;;;9.45;8.55;;;;;;;;;;6180452;28;20177;-69
2021/06/16 12:28:50;;;;;;;10.75;9.32;;;;;;;;;;6183769;28;20730;-69
2021/06/16 12:31:54;;;;;;;18.38;9.85;;;;;;;;;;6184644;28;20145;-68
2021/06/16 12:35:09;;;;;;;11.60;8.20;;;;;;;;;;6188361;28;20054;-69
2021/06/16 12:38:11;;;;;;;9.70;6.95;;;;;;;;;;6183208;28;20538;-68
2021/06/16 12:41:29;;;;;;;9.55;7.75;;;;;;;;;;6178243;28;20062;-69
2021/06/16 12:44:38;;;;;;;11.32;9.20;;;;;;;;;;6162103;28;20039;-68
2021/06/16 12:47:40;;;;;;;13.48;9.05;;;;;;;;;;6162920;28;20398;-69
2021/06/16 12:50:41;;;;;;;9.55;7.28;;;;;;;;;;6178506;28;20074;-69
2021/06/16 12:53:44;;;;;;;14.60;8.40;;;;;;;;;;6178663;28;20521;-69
2021/06/16 12:56:59;;;;;;;15.02;9.90;;;;;;;;;;6175872;28;20818;-69
2021/06/16 13:00:11;;;;;;;12.00;8.43;;;;;;;;;;6164942;28;20051;-69
2021/06/16 13:03:15;;;;;;;14.18;7.90;;;;;;;;;;6161377;28;20050;-69
2021/06/16 13:06:17;;;;;;;14.55;7.65;;;;;;;;;;6163521;28;20050;-69
2021/06/16 13:09:23;;;;;;;11.38;6.72;;;;;;;;;;6167269;28;20256;-68
2021/06/16 13:12:26;;;;;;;11.90;8.40;;;;;;;;;;6169314;28;20605;-69
2021/06/16 13:15:29;;;;;;;8.77;6.53;;;;;;;;;;6181324;28;20098;-67
2021/06/16 13:18:31;;;;;;;9.63;8.35;;;;;;;;;;6173285;28;20133;-67
2021/06/16 13:21:32;;;;;;;;;;;;;;;;;;6178458;28;20071;-70
2021/06/16 13:24:34;;;;;;;16.00;9.05;;;;;;;;;;6168068;28;20060;-68
2021/06/16 13:27:51;;;;;;;10.60;8.32;;;;;;;;;;6177220;28;20173;-69
2021/06/16 13:30:54;;;;;;;10.05;8.15;;;;;;;;;;6179097;28;20054;-68
2021/06/16 13:34:08;;;;;;;11.93;6.88;;;;;;;;;;6176284;28;20096;-70
2021/06/16 13:37:09;;;;;;;14.38;8.30;;;;;;;;;;6175775;28;20474;-68
2021/06/16 13:40:12;;;;;;;10.85;7.40;;;;;;;;;;6174710;28;20116;-68
2021/06/16 13:43:15;;;;;;;10.05;8.38;;;;;;;;;;6186358;28;20092;-69
2021/06/16 13:46:17;;;;;;;12.50;9.10;;;;;;;;;;6157009;28;20101;-68
2021/06/16 13:49:18;;;;;;;;;;;;;;;;;;6178856;28;20049;-70
2021/06/16 13:52:22;;;;;;;13.70;7.77;;;;;;;;;;6178103;28;20078;-69
2021/06/16 13:55:24;;;;;;;10.98;7.35;;;;;;;;;;6181656;28;20833;-69
2021/06/16 13:58:27;;;;;;;13.82;9.75;;;;;;;;;;6176104;28;20074;-67
2021/06/16 14:01:28;;;;;;;14.05;9.85;;;;;;;;;;6174058;28;20805;-69
2021/06/16 14:04:30;;;;;;;15.85;10.38;;;;;;;;;;6175948;28;20055;-69
2021/06/16 14:07:31;;;;;;;11.70;7.82;;;;;;;;;;6177122;28;20038;-69
2021/06/16 14:10:33;;;;;;;11.83;9.40;;;;;;;;;;6174899;28;20461;-69
2021/06/16 14:13:36;;;;;;;14.55;8.73;;;;;;;;;;6176817;28;20092;-68
2021/06/16 14:16:38;;;;;;;13.50;9.05;;;;;;;;;;6175597;28;20073;-69
2021/06/16 14:19:39;;;;;;;15.17;9.03;;;;;;;;;;6171703;28;20100;-68
2021/06/16 14:22:42;;;;;;;11.55;8.35;;;;;;;;;;6177531;28;20066;-68
2021/06/16 14:25:44;;;;;;;10.38;7.38;;;;;;;;;;6180208;28;20514;-68
2021/06/16 14:28:48;;;;;;;12.20;7.40;;;;;;;;;;6176165;28;20188;-68
2021/06/16 14:31:50;;;;;;;12.75;9.07;;;;;;;;;;6183432;28;20069;-67
2021/06/16 14:34:51;;;;;;;11.02;8.70;;;;;;;;;;6177837;28;20522;-68
2021/06/16 14:37:54;;;;;;;13.80;9.03;;;;;;;;;;6181080;28;20137;-69
2021/06/16 14:40:55;;;;;;;9.52;8.52;;;;;;;;;;6179772;28;20136;-69
2021/06/16 14:43:58;;;;;;;10.07;8.47;;;;;;;;;;6178804;28;20137;-69
2021/06/16 14:47:00;;;;;;;15.23;8.40;;;;;;;;;;6181152;28;20102;-70
2021/06/16 14:50:05;;;;;;;10.47;8.43;;;;;;;;;;6182655;28;20078;-69
2021/06/16 14:53:07;;;;;;;12.00;8.50;;;;;;;;;;6180393;28;20483;-69
2021/06/16 14:56:09;;;;;;;8.90;8.00;;;;;;;;;;6181568;28;20560;-68
2021/06/16 14:59:12;;;;;;;11.25;7.43;;;;;;;;;;6178379;28;20060;-69
2021/06/16 15:06:20;;;;;;;23.85;7.93;;;;;;;;;;6173649;28;20050;-70
2021/06/16 15:09:21;;;;;;;9.38;8.27;;;;;;;;;;6174210;28;20360;-70
2021/06/16 15:12:26;;;;;;;15.45;8.23;;;;;;;;;;6174663;28;20058;-69
2021/06/16 15:15:30;;;;;;;8.70;7.90;;;;;;;;;;6176895;28;20046;-68
2021/06/16 15:18:32;;;;;;;12.13;7.53;;;;;;;;;;6174302;28;21457;-68
2021/06/16 15:21:34;;;;;;;10.93;8.27;;;;;;;;;;6175230;28;20111;-68
2021/06/16 16:18:03;;;;;;;11.18;8.82;;;;;;;;;;6169067;28;20569;-70
2021/06/16 16:21:05;;;;;;;10.32;8.90;;;;;;;;;;6163178;28;20789;-70
2021/06/16 16:24:08;;;;;;;11.20;8.80;;;;;;;;;;6166619;28;20122;-69
2021/06/16 16:27:09;;;;;;;10.80;8.02;;;;;;;;;;6165620;28;20518;-69
2021/06/16 16:30:11;;;;;;;12.02;7.80;;;;;;;;;;6165813;28;20111;-69
2021/06/16 16:33:14;;;;;;;11.30;8.75;;;;;;;;;;6167924;28;20134;-70
2021/06/16 16:36:16;;;;;;;14.48;9.57;;;;;;;;;;6165242;28;20140;-70
2021/06/16 16:39:18;;;;;;;9.40;8.50;;;;;;;;;;6150444;28;20074;-68
2021/06/16 16:42:20;;;;;;;15.57;8.85;;;;;;;;;;6159811;28;20406;-72
2021/06/16 16:45:22;;;;;;;16.60;8.90;;;;;;;;;;6160329;28;20129;-74
2021/06/16 16:48:25;;;;;;;10.30;9.07;;;;;;;;;;6162389;28;20081;-69
2021/06/16 16:51:30;;;;;;;11.23;7.95;;;;;;;;;;6141610;28;20054;-69
2021/06/16 16:54:31;;;;;;;10.77;9.38;;;;;;;;;;6155772;28;20042;-70
2021/06/16 16:57:33;;;;;;;13.45;9.10;;;;;;;;;;6159184;28;20525;-70
2021/06/16 17:00:35;;;;;;;12.85;9.40;;;;;;;;;;6166371;28;20070;-70
2021/06/16 17:03:38;;;;;;;11.43;8.70;;;;;;;;;;6167169;28;20134;-69
2021/06/16 17:06:40;;;;;;;41.75;30.20;;;;;;;;;;6165403;28;20471;-68
2021/06/16 17:09:41;;;;;;;15.70;12.88;;;;;;;;;;6164052;28;20121;-68
2021/06/16 17:12:44;;;;;;;18.17;11.75;;;;;;;;;;6151854;28;20102;-69
2021/06/16 17:15:47;;;;;;;15.10;10.75;;;;;;;;;;6160358;28;20680;-70
2021/06/16 17:18:51;;;;;;;12.40;9.00;;;;;;;;;;6153376;28;20078;-69
2021/06/16 17:21:52;;;;;;;11.23;8.52;;;;;;;;;;6164525;28;20459;-69
2021/06/16 17:24:54;;;;;;;10.60;8.63;;;;;;;;;;6174446;28;20141;-71
2021/06/16 17:27:56;;;;;;;15.27;9.52;;;;;;;;;;6175054;28;20042;-69
2021/06/16 17:30:57;;;;;;;13.20;10.23;;;;;;;;;;6168780;28;20133;-70
2021/06/16 17:34:01;;;;;;;18.67;10.40;;;;;;;;;;6164591;28;20065;-69
2021/06/16 17:37:04;;;;;;;11.48;10.00;;;;;;;;;;6176012;28;20085;-70
2021/06/16 17:40:11;;;;;;;15.50;11.57;;;;;;;;;;6179597;28;20081;-69
2021/06/16 17:43:12;;;;;;;20.10;13.07;;;;;;;;;;6183997;28;20046;-69
2021/06/16 17:46:14;;;;;;;17.58;12.80;;;;;;;;;;6156600;28;20420;-69
2021/06/16 17:49:17;;;;;;;18.27;11.82;;;;;;;;;;6155297;28;20129;-68
2021/06/16 17:52:19;;;;;;;12.90;11.25;;;;;;;;;;6166656;28;20050;-69
2021/06/16 17:55:23;;;;;;;19.75;11.85;;;;;;;;;;6182657;28;20205;-68
2021/06/16 17:58:25;;;;;;;15.20;11.43;;;;;;;;;;6177760;28;20100;-69
2021/06/16 18:01:29;;;;;;;15.60;11.43;;;;;;;;;;6179922;28;20105;-68
2021/06/16 18:04:32;;;;;;;13.50;12.10;;;;;;;;;;6156140;28;20058;-68
2021/06/16 18:07:34;;;;;;;;;;;;;;;;;;6164766;28;20531;-68
2021/06/16 18:10:37;;;;;;;19.00;11.43;;;;;;;;;;6172601;28;19998;-68
2021/06/16 18:13:38;;;;;;;17.58;11.95;;;;;;;;;;6155496;28;21240;-67
2021/06/16 18:16:41;;;;;;;12.93;11.02;;;;;;;;;;6162104;28;20198;-68
2021/06/16 18:19:44;;;;;;;15.57;10.57;;;;;;;;;;6146007;28;20082;-69
2021/06/16 18:22:46;;;;;;;18.23;11.95;;;;;;;;;;6153147;28;20146;-69
2021/06/16 18:25:48;;;;;;;15.43;11.35;;;;;;;;;;6150513;28;20197;-69
2021/06/16 18:28:51;;;;;;;18.75;11.63;;;;;;;;;;6150730;28;20047;-69
2021/06/16 18:31:52;;;;;;;18.73;11.43;;;;;;;;;;6175095;28;20136;-69
2021/06/16 18:34:56;;;;;;;15.00;11.73;;;;;;;;;;6178714;28;20057;-67
2021/06/16 18:37:57;;;;;;;14.27;12.45;;;;;;;;;;6174526;28;20401;-73
2021/06/16 18:40:59;;;;;;;15.38;11.27;;;;;;;;;;6177521;28;20679;-71
2021/06/16 18:44:09;;;;;;;16.75;11.60;;;;;;;;;;6184008;28;20145;-72
2021/06/16 18:47:11;;;;;;;20.30;11.90;;;;;;;;;;6183615;28;20046;-69
2021/06/16 18:50:17;;;;;;;17.80;12.50;;;;;;;;;;6185789;28;20062;-68
2021/06/16 18:53:19;;;;;;;21.83;12.55;;;;;;;;;;6184347;28;20430;-69
2021/06/16 18:56:20;;;;;;;15.57;11.67;;;;;;;;;;6184436;28;20046;-68
2021/06/16 18:59:22;;;;;;;18.08;12.50;;;;;;;;;;6182519;28;20046;-69
2021/06/16 19:02:26;;;;;;;17.98;12.00;;;;;;;;;;6185404;28;20451;-70
2021/06/16 19:05:30;;;;;;;17.02;12.70;;;;;;;;;;6187225;28;20138;-69
2021/06/16 19:08:34;;;;;;;15.75;11.75;;;;;;;;;;6185242;28;20147;-69
2021/06/16 19:11:36;;;;;;;18.90;12.00;;;;;;;;;;6183006;28;20145;-72
2021/06/16 19:14:37;;;;;;;16.45;11.50;;;;;;;;;;6187100;28;20054;-71
2021/06/16 19:17:39;;;;;;;22.15;12.40;;;;;;;;;;6188477;28;20050;-71
2021/06/16 19:20:43;;;;;;;18.98;12.15;;;;;;;;;;6185505;28;20152;-71
2021/06/16 19:23:44;;;;;;;16.65;11.80;;;;;;;;;;6186907;28;20465;-71
2021/06/16 19:26:48;;;;;;;13.77;12.10;;;;;;;;;;6187622;28;20106;-70
2021/06/16 19:29:50;;;;;;;15.35;11.50;;;;;;;;;;6172300;28;20125;-70
2021/06/16 19:32:54;;;;;;;17.45;11.38;;;;;;;;;;6190029;28;20089;-71
2021/06/16 19:35:58;;;;;;;16.52;11.77;;;;;;;;;;6185830;28;20528;-70
2021/06/16 19:39:00;;;;;;;20.10;11.68;;;;;;;;;;6190398;28;20050;-71
2021/06/16 19:42:01;;;;;;;15.60;11.48;;;;;;;;;;6187612;28;20145;-71
2021/06/16 19:45:07;;;;;;;16.67;11.55;;;;;;;;;;6191204;28;20566;-71
2021/06/16 19:48:09;;;;;;;16.35;12.25;;;;;;;;;;6184928;28;20046;-70
2021/06/16 19:51:11;;;;;;;17.55;13.05;;;;;;;;;;6188134;28;20164;-70
2021/06/16 19:54:13;;;;;;;16.80;12.27;;;;;;;;;;6187911;28;20149;-70
2021/06/16 19:57:15;;;;;;;14.93;12.35;;;;;;;;;;6192550;28;20074;-70